Time;durP1;ratioP1;P1;durP2;ratioP2;P2;SDS_P1;SDS_P2;PMS_P1;PMS_P2;Temp;Humidity;BMP_temperature;BMP_pressure;BME280_temperature;BME280_humidity;BME280_pressure;Samples;Min_cycle;Max_cycle;Signal;HPM_P1;HPM_P2
2021/12/28 00:01:27;;;;;;;;;;;;;;;8.26;nan;99015.53;5032736;28;19928;-86
2021/12/28 00:03:53;;;;;;;;;;;;;;;8.27;nan;98998.75;5036603;28;19921;-86
2021/12/28 00:06:18;;;;;;;;;;;;;;;8.30;nan;99002.84;5036080;28;19921;-86
2021/12/28 00:08:44;;;;;;;;;;;;;;;8.34;nan;99004.13;5016754;28;19931;-86
2021/12/28 00:11:10;;;;;;;;;;;;;;;8.41;nan;98994.53;5008468;28;19917;-86
2021/12/28 00:13:36;;;;;;;;;;;;;;;8.43;nan;99002.28;5028820;28;19917;-86
2021/12/28 00:16:24;;;;;;;;;;;;;;;8.47;nan;99007.03;5024505;28;20222;-87
2021/12/28 00:18:47;;;;;;;;;;;;;;;8.53;nan;98996.78;5036895;28;19952;-87
2021/12/28 00:21:12;;;;;;;;;;;;;;;8.58;nan;98991.78;5055438;28;19928;-86
2021/12/28 00:23:39;;;;;;;;;;;;;;;8.61;nan;98991.47;5054404;28;20016;-87
2021/12/28 00:26:07;;;;;;;;;;;;;;;8.65;nan;98990.09;5046810;28;19978;-88
2021/12/28 00:28:32;;;;;;;;;;;;;;;8.65;nan;98976.91;5043365;28;19921;-86
2021/12/28 00:30:58;;;;;;;;;;;;;;;8.70;nan;98977.22;5055580;28;20275;-86
2021/12/28 00:33:24;;;;;;;;;;;;;;;8.69;nan;98971.13;5051925;28;20252;-86
2021/12/28 00:35:49;;;;;;;;;;;;;;;8.74;nan;98973.22;5051792;28;19928;-87
2021/12/28 00:38:18;;;;;;;;;;;;;;;8.68;nan;98968.69;5057200;28;19924;-88
2021/12/28 00:40:44;;;;;;;;;;;;;;;8.74;nan;98964.50;5054007;28;20398;-87
2021/12/28 00:43:09;;;;;;;;;;;;;;;8.75;nan;98956.44;5047120;28;19931;-86
2021/12/28 00:45:34;;;;;;;;;;;;;;;8.75;nan;98959.06;5039190;28;19924;-86
2021/12/28 00:47:59;;;;;;;;;;;;;;;8.73;nan;98962.88;5052293;28;19921;-86
2021/12/28 00:50:26;;;;;;;;;;;;;;;8.73;nan;98970.78;5058407;28;19933;-86
2021/12/28 00:52:52;;;;;;;;;;;;;;;8.79;nan;98970.06;5059917;28;20004;-85
2021/12/28 00:55:19;;;;;;;;;;;;;;;8.82;nan;98967.91;5066839;28;19915;-86
2021/12/28 00:57:44;;;;;;;;;;;;;;;8.78;nan;98968.44;5062417;28;20059;-86
2021/12/28 01:00:12;;;;;;;;;;;;;;;8.75;nan;98964.34;5050049;28;20413;-86
2021/12/28 01:02:37;;;;;;;;;;;;;;;8.75;nan;98963.50;5041398;28;20382;-86
2021/12/28 01:05:03;;;;;;;;;;;;;;;8.69;nan;98968.47;5046342;28;19921;-86
2021/12/28 01:07:28;;;;;;;;;;;;;;;8.73;nan;98968.97;5039949;28;20383;-86
2021/12/28 01:09:53;;;;;;;;;;;;;;;8.70;nan;98967.50;5047316;28;20298;-86
2021/12/28 01:12:18;;;;;;;;;;;;;;;8.71;nan;98981.50;5047844;28;20023;-86
2021/12/28 01:14:44;;;;;;;;;;;;;;;8.66;nan;98973.31;5052934;28;19921;-86
2021/12/28 01:17:09;;;;;;;;;;;;;;;8.65;nan;98961.09;5040473;28;19925;-86
2021/12/28 01:19:34;;;;;;;;;;;;;;;8.70;nan;98956.16;5042492;28;20367;-86
2021/12/28 01:22:01;;;;;;;;;;;;;;;8.65;nan;98954.06;5049365;28;20298;-85
2021/12/28 01:24:27;;;;;;;;;;;;;;;8.70;nan;98945.59;5048556;28;19968;-86
2021/12/28 01:26:52;;;;;;;;;;;;;;;8.63;nan;98942.88;5047217;28;20282;-86
2021/12/28 01:29:17;;;;;;;;;;;;;;;8.70;nan;98940.34;5048829;28;19921;-86
2021/12/28 01:31:42;;;;;;;;;;;;;;;8.68;nan;98934.44;5045112;28;20318;-86
2021/12/28 01:34:08;;;;;;;;;;;;;;;8.67;nan;98933.59;5038581;28;19928;-86
2021/12/28 01:36:33;;;;;;;;;;;;;;;8.75;nan;98931.88;5047978;28;19975;-86
2021/12/28 01:38:59;;;;;;;;;;;;;;;8.73;nan;98921.53;5049932;28;19925;-86
2021/12/28 01:41:24;;;;;;;;;;;;;;;8.76;nan;98918.53;5045424;28;20374;-86
2021/12/28 01:43:56;;;;;;;;;;;;;;;8.74;nan;98912.59;5046823;28;19991;-86
2021/12/28 01:46:22;;;;;;;;;;;;;;;8.69;nan;98910.50;5051090;28;19921;-86
2021/12/28 01:48:47;;;;;;;;;;;;;;;8.70;nan;98906.09;5041862;28;19935;-86
2021/12/28 01:51:14;;;;;;;;;;;;;;;8.69;nan;98901.78;5053696;28;20329;-86
2021/12/28 01:53:40;;;;;;;;;;;;;;;8.66;nan;98895.06;5046809;28;20271;-87
2021/12/28 01:56:11;;;;;;;;;;;;;;;8.65;nan;98896.06;5043165;28;19924;-87
2021/12/28 01:58:38;;;;;;;;;;;;;;;8.69;nan;98897.34;5051316;28;19929;-86
2021/12/28 02:01:04;;;;;;;;;;;;;;;8.68;nan;98893.06;5045438;28;20298;-87
2021/12/28 02:03:30;;;;;;;;;;;;;;;8.75;nan;98890.53;5046355;28;19921;-87
2021/12/28 02:05:55;;;;;;;;;;;;;;;8.65;nan;98885.53;5046626;28;19921;-87
2021/12/28 02:08:21;;;;;;;;;;;;;;;8.64;nan;98883.06;5044352;28;19936;-87
2021/12/28 02:10:47;;;;;;;;;;;;;;;8.59;nan;98880.97;5046631;28;19966;-87
2021/12/28 02:13:14;;;;;;;;;;;;;;;8.62;nan;98888.50;5042059;28;20013;-87
2021/12/28 02:15:39;;;;;;;;;;;;;;;8.55;nan;98886.78;5050081;28;19932;-88
2021/12/28 02:18:06;;;;;;;;;;;;;;;8.57;nan;98880.34;5049005;28;19940;-87
2021/12/28 02:20:31;;;;;;;;;;;;;;;8.58;nan;98879.34;5049027;28;19929;-87
2021/12/28 02:22:56;;;;;;;;;;;;;;;8.59;nan;98869.63;5051100;28;19928;-87
2021/12/28 02:25:21;;;;;;;;;;;;;;;8.49;nan;98868.06;5046992;28;19921;-86
2021/12/28 02:27:47;;;;;;;;;;;;;;;8.46;nan;98850.00;5047461;28;20003;-86
2021/12/28 02:30:14;;;;;;;;;;;;;;;8.46;nan;98854.41;5043255;28;19917;-87
2021/12/28 02:32:40;;;;;;;;;;;;;;;8.50;nan;98860.97;5048930;28;20039;-86
2021/12/28 02:35:10;;;;;;;;;;;;;;;8.50;nan;98859.16;5042569;28;20291;-86
2021/12/28 02:37:35;;;;;;;;;;;;;;;8.48;nan;98853.22;5056400;28;19925;-86
2021/12/28 02:40:00;;;;;;;;;;;;;;;8.46;nan;98850.00;5049920;28;19966;-86
2021/12/28 02:42:26;;;;;;;;;;;;;;;8.50;nan;98850.44;5057152;28;19999;-86
2021/12/28 02:44:55;;;;;;;;;;;;;;;8.49;nan;98841.72;5055079;28;19932;-86
2021/12/28 02:47:21;;;;;;;;;;;;;;;8.47;nan;98827.09;5046269;28;19964;-86
2021/12/28 02:49:46;;;;;;;;;;;;;;;8.52;nan;98829.19;5032091;28;19966;-85
2021/12/28 02:52:11;;;;;;;;;;;;;;;8.60;nan;98824.63;5043502;28;19952;-86
2021/12/28 02:54:38;;;;;;;;;;;;;;;8.67;nan;98827.38;5046415;28;20378;-86
2021/12/28 02:57:03;;;;;;;;;;;;;;;8.67;nan;98820.28;5048191;28;19932;-86
2021/12/28 02:59:28;;;;;;;;;;;;;;;8.74;nan;98819.56;5044269;28;19921;-86
2021/12/28 03:01:53;;;;;;;;;;;;;;;8.77;nan;98813.91;5056024;28;20019;-86
2021/12/28 03:04:23;;;;;;;;;;;;;;;8.80;nan;98814.38;5048601;28;19983;-86
2021/12/28 03:06:48;;;;;;;;;;;;;;;8.87;nan;98820.56;5046914;28;19917;-86
2021/12/28 03:09:15;;;;;;;;;;;;;;;8.82;nan;98804.50;5050476;28;19943;-85
2021/12/28 03:11:40;;;;;;;;;;;;;;;8.88;nan;98806.38;5049781;28;20379;-86
2021/12/28 03:14:06;;;;;;;;;;;;;;;8.92;nan;98797.09;5044167;28;19925;-87
2021/12/28 03:16:31;;;;;;;;;;;;;;;9.00;nan;98792.72;5050282;28;19971;-86
2021/12/28 03:18:57;;;;;;;;;;;;;;;8.99;nan;98799.03;5053464;28;20437;-86
2021/12/28 03:21:22;;;;;;;;;;;;;;;9.09;nan;98791.63;5054675;28;20004;-86
2021/12/28 03:23:48;;;;;;;;;;;;;;;9.14;nan;98791.88;5053069;28;19921;-86
2021/12/28 03:26:14;;;;;;;;;;;;;;;9.16;nan;98783.81;5053019;28;19931;-87
2021/12/28 03:28:40;;;;;;;;;;;;;;;9.16;nan;98783.81;5056197;28;19920;-87
2021/12/28 03:31:06;;;;;;;;;;;;;;;9.16;nan;98775.91;5058158;28;20321;-86
2021/12/28 03:33:32;;;;;;;;;;;;;;;9.22;nan;98772.50;5054539;28;20374;-86
2021/12/28 03:35:58;;;;;;;;;;;;;;;9.22;nan;98761.94;5054520;28;20297;-86
2021/12/28 03:38:24;;;;;;;;;;;;;;;9.27;nan;98754.28;5051993;28;19936;-86
2021/12/28 03:40:50;;;;;;;;;;;;;;;9.35;nan;98746.28;5048170;28;19921;-87
2021/12/28 03:43:15;;;;;;;;;;;;;;;9.29;nan;98739.91;5049049;28;19948;-87
2021/12/28 03:45:41;;;;;;;;;;;;;;;9.34;nan;98737.56;5053352;28;20275;-86
2021/12/28 03:48:06;;;;;;;;;;;;;;;9.33;nan;98728.00;5042000;28;19916;-86
2021/12/28 03:50:33;;;;;;;;;;;;;;;9.33;nan;98732.44;5050691;28;19944;-86
2021/12/28 03:52:58;;;;;;;;;;;;;;;9.31;nan;98731.81;5053751;28;19928;-86
2021/12/28 03:55:24;;;;;;;;;;;;;;;9.38;nan;98732.69;5044023;28;19952;-86
2021/12/28 03:57:49;;;;;;;;;;;;;;;9.44;nan;98731.97;5048689;28;19935;-86
2021/12/28 04:00:16;;;;;;;;;;;;;;;9.46;nan;98729.13;5033387;28;19928;-86
2021/12/28 04:02:41;;;;;;;;;;;;;;;9.47;nan;98720.22;5043199;28;19931;-87
2021/12/28 04:05:07;;;;;;;;;;;;;;;9.54;nan;98715.81;5036433;28;19925;-86
2021/12/28 04:07:33;;;;;;;;;;;;;;;9.57;nan;98718.88;5039500;28;19937;-87
2021/12/28 04:10:01;;;;;;;;;;;;;;;9.54;nan;98719.25;5031672;28;19921;-87
2021/12/28 04:12:27;;;;;;;;;;;;;;;9.46;nan;98721.19;5018692;28;19931;-85
2021/12/28 04:14:53;;;;;;;;;;;;;;;9.45;nan;98711.66;5041965;28;19922;-86
2021/12/28 04:17:18;;;;;;;;;;;;;;;9.36;nan;98714.41;5017130;28;19996;-86
2021/12/28 04:19:43;;;;;;;;;;;;;;;9.36;nan;98716.25;5017195;28;19925;-86
2021/12/28 04:22:09;;;;;;;;;;;;;;;9.45;nan;98712.47;5002832;28;19947;-86
2021/12/28 04:24:34;;;;;;;;;;;;;;;9.51;nan;98718.81;5016212;28;19936;-86
2021/12/28 04:26:59;;;;;;;;;;;;;;;9.48;nan;98713.91;5034019;28;19921;-87
2021/12/28 04:29:24;;;;;;;;;;;;;;;9.35;nan;98709.34;5034951;28;19922;-87
2021/12/28 04:31:50;;;;;;;;;;;;;;;9.19;nan;98718.31;5010800;28;20389;-85
2021/12/28 04:34:15;;;;;;;;;;;;;;;9.08;nan;98718.78;5000866;28;20450;-87
2021/12/28 04:36:41;;;;;;;;;;;;;;;9.17;nan;98712.41;5011963;28;19952;-88
2021/12/28 04:39:06;;;;;;;;;;;;;;;9.02;nan;98712.47;5013882;28;19952;-88
2021/12/28 04:41:32;;;;;;;;;;;;;;;8.92;nan;98719.84;5020471;28;19917;-88
2021/12/28 04:44:00;;;;;;;;;;;;;;;8.82;nan;98716.66;5006998;28;19928;-87
2021/12/28 04:46:25;;;;;;;;;;;;;;;8.70;nan;98711.09;5013428;28;19974;-87
2021/12/28 04:48:50;;;;;;;;;;;;;;;8.66;nan;98707.19;5008636;28;19917;-88
2021/12/28 04:51:15;;;;;;;;;;;;;;;8.52;nan;98700.09;5015085;28;19921;-87
2021/12/28 04:53:41;;;;;;;;;;;;;;;8.53;nan;98707.81;5034630;28;20411;-87
2021/12/28 04:56:06;;;;;;;;;;;;;;;8.56;nan;98698.75;5031969;28;20069;-88
2021/12/28 04:58:31;;;;;;;;;;;;;;;8.49;nan;98696.03;5013623;28;19932;-88
2021/12/28 05:00:57;;;;;;;;;;;;;;;8.46;nan;98696.38;5004736;28;19997;-87
2021/12/28 05:03:22;;;;;;;;;;;;;;;8.46;nan;98702.47;5020351;28;20118;-88
2021/12/28 05:05:50;;;;;;;;;;;;;;;8.44;nan;98703.66;5021386;28;19948;-88
2021/12/28 05:08:16;;;;;;;;;;;;;;;8.42;nan;98710.94;5010964;28;19956;-89
2021/12/28 05:10:42;;;;;;;;;;;;;;;8.37;nan;98706.19;5011373;28;19957;-88
2021/12/28 05:13:07;;;;;;;;;;;;;;;8.38;nan;98702.53;5019458;28;21632;-88
2021/12/28 05:15:32;;;;;;;;;;;;;;;8.38;nan;98710.44;4995113;28;19963;-87
2021/12/28 05:17:58;;;;;;;;;;;;;;;8.34;nan;98711.78;5008926;28;19933;-88
2021/12/28 05:20:23;;;;;;;;;;;;;;;8.36;nan;98715.06;5010843;28;19975;-87
2021/12/28 05:22:48;;;;;;;;;;;;;;;8.28;nan;98718.59;5008943;28;19921;-88
2021/12/28 05:25:14;;;;;;;;;;;;;;;8.31;nan;98714.78;5008743;28;19979;-88
2021/12/28 05:27:41;;;;;;;;;;;;;;;8.30;nan;98713.97;5000478;28;19933;-87
2021/12/28 05:30:07;;;;;;;;;;;;;;;8.28;nan;98704.63;5005504;28;19925;-88
2021/12/28 05:32:32;;;;;;;;;;;;;;;8.26;nan;98699.53;5031576;28;20035;-87
2021/12/28 05:34:57;;;;;;;;;;;;;;;8.29;nan;98700.97;5005589;28;19952;-87
2021/12/28 05:37:22;;;;;;;;;;;;;;;8.26;nan;98696.91;4999465;28;19970;-87
2021/12/28 05:39:48;;;;;;;;;;;;;;;8.25;nan;98692.66;5011896;28;20007;-87
2021/12/28 05:42:13;;;;;;;;;;;;;;;8.29;nan;98687.81;5030554;28;19928;-87
2021/12/28 05:44:38;;;;;;;;;;;;;;;8.37;nan;98689.56;5027331;28;19960;-88
2021/12/28 05:47:04;;;;;;;;;;;;;;;8.36;nan;98680.00;5004665;28;20073;-88
2021/12/28 05:49:29;;;;;;;;;;;;;;;8.37;nan;98679.03;5008660;28;19925;-87
2021/12/28 05:51:54;;;;;;;;;;;;;;;8.32;nan;98674.31;5019857;28;20015;-87
2021/12/28 05:54:20;;;;;;;;;;;;;;;8.32;nan;98674.31;5002069;28;20364;-88
2021/12/28 05:56:46;;;;;;;;;;;;;;;8.32;nan;98660.31;5014847;28;19921;-87
2021/12/28 05:59:11;;;;;;;;;;;;;;;8.36;nan;98651.03;5026472;28;19928;-87
2021/12/28 06:01:37;;;;;;;;;;;;;;;8.34;nan;98656.47;5004512;28;19944;-87
2021/12/28 06:04:02;;;;;;;;;;;;;;;8.32;nan;98652.41;5005239;28;19956;-88
2021/12/28 06:06:28;;;;;;;;;;;;;;;8.33;nan;98659.31;5041980;28;19917;-88
2021/12/28 06:08:53;;;;;;;;;;;;;;;8.32;nan;98658.50;5014579;28;19949;-87
2021/12/28 06:11:19;;;;;;;;;;;;;;;8.27;nan;98664.31;5030509;28;19922;-88
2021/12/28 06:13:45;;;;;;;;;;;;;;;8.29;nan;98667.59;5013625;28;20358;-87
2021/12/28 06:16:10;;;;;;;;;;;;;;;8.38;nan;98659.59;5044143;28;19929;-88
2021/12/28 06:18:36;;;;;;;;;;;;;;;8.34;nan;98660.94;5013149;28;19926;-88
2021/12/28 06:21:02;;;;;;;;;;;;;;;8.29;nan;98654.44;5012081;28;19944;-88
2021/12/28 06:23:27;;;;;;;;;;;;;;;8.18;nan;98654.88;5046553;28;19921;-88
2021/12/28 06:25:52;;;;;;;;;;;;;;;8.16;nan;98648.97;5012413;28;19928;-88
2021/12/28 06:28:18;;;;;;;;;;;;;;;8.07;nan;98634.28;5033986;28;20410;-86
2021/12/28 06:30:43;;;;;;;;;;;;;;;8.05;nan;98642.34;5010681;28;19921;-86
2021/12/28 06:33:08;;;;;;;;;;;;;;;8.01;nan;98637.66;5013398;28;20247;-87
2021/12/28 06:35:33;;;;;;;;;;;;;;;8.11;nan;98635.53;5030602;28;20417;-86
2021/12/28 06:37:59;;;;;;;;;;;;;;;8.17;nan;98631.34;5031852;28;19924;-85
2021/12/28 06:40:24;;;;;;;;;;;;;;;8.15;nan;98642.09;5016446;28;19949;-86
2021/12/28 06:42:49;;;;;;;;;;;;;;;8.12;nan;98624.00;5024120;28;19917;-85
2021/12/28 06:45:14;;;;;;;;;;;;;;;8.22;nan;98627.19;5010817;28;20298;-86
2021/12/28 06:47:40;;;;;;;;;;;;;;;8.21;nan;98627.38;5034215;28;20300;-87
2021/12/28 06:50:05;;;;;;;;;;;;;;;8.23;nan;98628.81;5015083;28;19975;-86
2021/12/28 06:52:31;;;;;;;;;;;;;;;8.23;nan;98625.38;5018518;28;19922;-85
2021/12/28 06:54:56;;;;;;;;;;;;;;;8.21;nan;98620.28;5037304;28;19917;-87
2021/12/28 06:57:22;;;;;;;;;;;;;;;8.21;nan;98617.66;5019482;28;19994;-86
2021/12/28 06:59:47;;;;;;;;;;;;;;;8.18;nan;98614.56;5031207;28;20329;-86
2021/12/28 07:02:13;;;;;;;;;;;;;;;8.21;nan;98609.75;5017817;28;20008;-85
2021/12/28 07:04:39;;;;;;;;;;;;;;;8.15;nan;98613.13;5019253;28;19971;-86
2021/12/28 07:07:05;;;;;;;;;;;;;;;8.17;nan;98603.22;5036432;28;19921;-86
2021/12/28 07:09:30;;;;;;;;;;;;;;;8.23;nan;98599.84;5016860;28;19921;-87
2021/12/28 07:11:55;;;;;;;;;;;;;;;8.19;nan;98600.41;5030608;28;19957;-86
2021/12/28 07:14:20;;;;;;;;;;;;;;;8.20;nan;98583.59;5006717;28;19981;-87
2021/12/28 07:16:45;;;;;;;;;;;;;;;8.25;nan;98602.31;5031191;28;20374;-88
2021/12/28 07:19:11;;;;;;;;;;;;;;;8.23;nan;98591.94;5012894;28;20357;-86
2021/12/28 07:21:40;;;;;;;;;;;;;;;8.20;nan;98592.34;5014014;28;20347;-88
2021/12/28 07:24:06;;;;;;;;;;;;;;;8.24;nan;98583.03;5033462;28;19933;-87
2021/12/28 07:26:31;;;;;;;;;;;;;;;8.25;nan;98574.16;5026139;28;19975;-86
2021/12/28 07:28:56;;;;;;;;;;;;;;;8.30;nan;98584.94;5026021;28;20024;-86
2021/12/28 07:31:22;;;;;;;;;;;;;;;8.38;nan;98573.47;5008416;28;19972;-88
2021/12/28 07:33:47;;;;;;;;;;;;;;;8.40;nan;98586.50;5016784;28;20302;-87
2021/12/28 07:36:12;;;;;;;;;;;;;;;8.49;nan;98582.75;5010789;28;20385;-88
2021/12/28 07:38:37;;;;;;;;;;;;;;;8.47;nan;98582.13;5007026;28;19929;-87
2021/12/28 07:41:03;;;;;;;;;;;;;;;8.52;nan;98592.09;5034520;28;19932;-86
2021/12/28 07:43:28;;;;;;;;;;;;;;;8.52;nan;98592.09;5020633;28;19927;-87
2021/12/28 07:45:53;;;;;;;;;;;;;;;8.54;nan;98593.56;5021194;28;19921;-87
2021/12/28 07:48:19;;;;;;;;;;;;;;;8.51;nan;98588.66;5020236;28;19933;-88
2021/12/28 07:50:44;;;;;;;;;;;;;;;8.47;nan;98587.41;5008964;28;19935;-89
2021/12/28 07:53:12;;;;;;;;;;;;;;;8.39;nan;98587.47;5021643;28;19935;-88
2021/12/28 07:55:37;;;;;;;;;;;;;;;8.44;nan;98585.16;5020183;28;19993;-87
2021/12/28 07:58:03;;;;;;;;;;;;;;;8.38;nan;98593.75;5023518;28;19976;-87
2021/12/28 08:00:28;;;;;;;;;;;;;;;8.43;nan;98588.75;5014427;28;19928;-87
2021/12/28 08:02:54;;;;;;;;;;;;;;;8.41;nan;98591.56;5021787;28;19925;-88
2021/12/28 08:05:20;;;;;;;;;;;;;;;8.39;nan;98593.56;5038368;28;19945;-86
2021/12/28 08:07:45;;;;;;;;;;;;;;;8.39;nan;98606.72;5041021;28;20282;-86
2021/12/28 08:10:12;;;;;;;;;;;;;;;8.47;nan;98601.38;5013139;28;19957;-88
2021/12/28 08:12:37;;;;;;;;;;;;;;;8.45;nan;98599.94;5004595;28;19925;-87
2021/12/28 08:15:03;;;;;;;;;;;;;;;8.41;nan;98609.19;5017693;28;19921;-86
2021/12/28 08:17:29;;;;;;;;;;;;;;;8.35;nan;98602.84;5023422;28;19933;-87
2021/12/28 08:19:54;;;;;;;;;;;;;;;8.44;nan;98600.94;5030900;28;19929;-87
2021/12/28 08:22:19;;;;;;;;;;;;;;;8.43;nan;98601.94;5035248;28;19949;-87
2021/12/28 08:24:45;;;;;;;;;;;;;;;8.45;nan;98599.94;5015882;28;19921;-87
2021/12/28 08:27:10;;;;;;;;;;;;;;;8.46;nan;98599.75;5034170;28;19928;-87
2021/12/28 08:29:35;;;;;;;;;;;;;;;8.59;nan;98606.16;5018670;28;20359;-89
2021/12/28 08:32:00;;;;;;;;;;;;;;;8.51;nan;98599.19;5017492;28;19921;-89
2021/12/28 08:34:25;;;;;;;;;;;;;;;8.51;nan;98601.84;5008982;28;19921;-89
2021/12/28 08:36:51;;;;;;;;;;;;;;;8.40;nan;98600.50;5008516;28;19935;-88
2021/12/28 08:39:16;;;;;;;;;;;;;;;8.40;nan;98607.56;5016777;28;19929;-86
2021/12/28 08:41:42;;;;;;;;;;;;;;;8.39;nan;98613.78;5035232;28;19922;-88
2021/12/28 08:44:09;;;;;;;;;;;;;;;8.48;nan;98610.09;5016174;28;19947;-87
2021/12/28 08:46:34;;;;;;;;;;;;;;;8.39;nan;98612.00;5009603;28;19934;-86
2021/12/28 08:48:59;;;;;;;;;;;;;;;8.35;nan;98607.28;5025552;28;19925;-87
2021/12/28 08:51:24;;;;;;;;;;;;;;;8.33;nan;98614.56;5021381;28;20163;-87
2021/12/28 08:53:51;;;;;;;;;;;;;;;8.38;nan;98625.34;5027059;28;19921;-87
2021/12/28 08:56:16;;;;;;;;;;;;;;;8.41;nan;98625.00;5030027;28;19921;-88
2021/12/28 08:58:41;;;;;;;;;;;;;;;8.32;nan;98632.19;5035307;28;19948;-86
2021/12/28 09:01:06;;;;;;;;;;;;;;;8.32;nan;98636.59;5013957;28;19928;-88
2021/12/28 09:03:32;;;;;;;;;;;;;;;8.33;nan;98640.88;5047167;28;20177;-88
2021/12/28 09:05:57;;;;;;;;;;;;;;;8.36;nan;98646.59;5028979;28;19909;-88
2021/12/28 09:08:23;;;;;;;;;;;;;;;8.35;nan;98641.53;5048096;28;19921;-86
2021/12/28 09:10:48;;;;;;;;;;;;;;;8.41;nan;98646.06;5025621;28;19989;-87
2021/12/28 09:13:14;;;;;;;;;;;;;;;8.35;nan;98644.97;5014234;28;20016;-87
2021/12/28 09:15:40;;;;;;;;;;;;;;;8.39;nan;98648.03;5016664;28;19920;-86
2021/12/28 09:18:05;;;;;;;;;;;;;;;8.44;nan;98656.25;5026626;28;20051;-89
2021/12/28 09:20:30;;;;;;;;;;;;;;;8.44;nan;98651.00;5031128;28;19921;-88
2021/12/28 09:22:56;;;;;;;;;;;;;;;8.48;nan;98647.78;5035883;28;19943;-87
2021/12/28 09:25:22;;;;;;;;;;;;;;;8.43;nan;98651.97;5037921;28;19985;-88
2021/12/28 09:27:48;;;;;;;;;;;;;;;8.48;nan;98658.31;5028603;28;19921;-89
2021/12/28 09:30:14;;;;;;;;;;;;;;;8.52;nan;98664.03;5007734;28;19968;-86
2021/12/28 09:32:39;;;;;;;;;;;;;;;8.55;nan;98668.13;5008192;28;19979;-87
2021/12/28 09:35:05;;;;;;;;;;;;;;;8.55;nan;98668.13;5033121;28;19925;-88
2021/12/28 09:37:33;;;;;;;;;;;;;;;8.55;nan;98674.19;5015847;28;19925;-87
2021/12/28 09:39:59;;;;;;;;;;;;;;;8.59;nan;98666.75;5017998;28;19921;-88
2021/12/28 09:42:24;;;;;;;;;;;;;;;8.59;nan;98670.22;5037631;28;20385;-87
2021/12/28 09:44:51;;;;;;;;;;;;;;;8.60;nan;98676.28;5017831;28;19921;-87
2021/12/28 09:47:17;;;;;;;;;;;;;;;8.63;nan;98679.38;5031181;28;19928;-85
2021/12/28 09:49:43;;;;;;;;;;;;;;;8.64;nan;98685.47;5031225;28;19932;-88
2021/12/28 09:52:08;;;;;;;;;;;;;;;8.59;nan;98683.38;5023426;28;19909;-86
2021/12/28 09:54:34;;;;;;;;;;;;;;;8.63;nan;98679.38;5026884;28;19921;-86
2021/12/28 09:57:00;;;;;;;;;;;;;;;8.64;nan;98688.09;5015712;28;19984;-87
2021/12/28 09:59:27;;;;;;;;;;;;;;;8.65;nan;98685.28;5034621;28;19960;-86
2021/12/28 10:01:52;;;;;;;;;;;;;;;8.62;nan;98680.38;5026806;28;19929;-87
2021/12/28 10:04:19;;;;;;;;;;;;;;;8.69;nan;98681.25;5040525;28;19975;-87
2021/12/28 10:06:44;;;;;;;;;;;;;;;8.66;nan;98686.91;5011998;28;20035;-88
2021/12/28 10:09:15;;;;;;;;;;;;;;;8.65;nan;98690.56;5025339;28;19937;-88
2021/12/28 10:11:43;;;;;;;;;;;;;;;8.71;nan;98687.16;5012406;28;19928;-89
2021/12/28 10:14:10;;;;;;;;;;;;;;;8.73;nan;98686.19;5008083;28;19921;-88
2021/12/28 10:16:45;;;;;;;;;;;;;;;8.73;nan;98691.47;5018550;28;20298;-87
2021/12/28 10:19:31;;;;;;;;;;;;;;;8.81;nan;98691.34;5010754;28;19929;-88
2021/12/28 10:21:56;;;;;;;;;;;;;;;8.77;nan;98688.25;5014829;28;19983;-87
2021/12/28 10:24:38;;;;;;;;;;;;;;;8.84;nan;98697.06;5016453;28;19921;-89
2021/12/28 10:27:32;;;;;;;;;;;;;;;8.89;nan;98685.94;5029502;28;20080;-88
2021/12/28 10:30:18;;;;;;;;;;;;;;;8.93;nan;98684.56;5000702;28;20383;-88
2021/12/28 10:32:47;;;;;;;;;;;;;;;8.95;nan;98672.03;5025879;28;20361;-88
2021/12/28 10:35:17;;;;;;;;;;;;;;;9.01;nan;98673.09;5032514;28;20384;-88
2021/12/28 10:37:47;;;;;;;;;;;;;;;9.03;nan;98668.44;5014891;28;19925;-88
2021/12/28 10:40:14;;;;;;;;;;;;;;;9.05;nan;98666.44;5044197;28;20390;-87
2021/12/28 10:42:48;;;;;;;;;;;;;;;9.10;nan;98671.97;5026595;28;19920;-87
2021/12/28 10:45:19;;;;;;;;;;;;;;;9.17;nan;98662.31;5019137;28;19948;-88
2021/12/28 10:47:44;;;;;;;;;;;;;;;9.22;nan;98673.09;5041343;28;19947;-87
2021/12/28 10:50:30;;;;;;;;;;;;;;;9.25;nan;98669.28;5043423;28;19924;-88
2021/12/28 10:53:03;;;;;;;;;;;;;;;9.32;nan;98678.09;5048498;28;20012;-87
2021/12/28 10:55:29;;;;;;;;;;;;;;;9.30;nan;98672.97;5045548;28;19943;-87
2021/12/28 10:57:54;;;;;;;;;;;;;;;9.36;nan;98684.59;5049390;28;19936;-87
2021/12/28 11:00:28;;;;;;;;;;;;;;;9.41;nan;98679.56;5032086;28;19927;-87
2021/12/28 11:03:13;;;;;;;;;;;;;;;9.40;nan;98680.56;5048804;28;20474;-87
2021/12/28 11:05:39;;;;;;;;;;;;;;;9.44;nan;98675.72;5044192;28;19964;-87
2021/12/28 11:08:07;;;;;;;;;;;;;;;9.50;nan;98678.41;5050191;28;19921;-88
2021/12/28 11:10:33;;;;;;;;;;;;;;;9.52;nan;98675.59;5051993;28;19917;-87
2021/12/28 11:12:59;;;;;;;;;;;;;;;9.56;nan;98672.41;5045434;28;19943;-87
2021/12/28 11:15:25;;;;;;;;;;;;;;;9.58;nan;98669.53;5046753;28;20023;-89
2021/12/28 11:17:51;;;;;;;;;;;;;;;9.65;nan;98659.06;5041186;28;19934;-88
2021/12/28 11:20:16;;;;;;;;;;;;;;;9.74;nan;98657.91;5045486;28;19921;-87
2021/12/28 11:23:01;;;;;;;;;;;;;;;9.83;nan;98656.75;5050391;28;19998;-87
2021/12/28 11:25:27;;;;;;;;;;;;;;;9.88;nan;98651.69;5042664;28;19964;-87
2021/12/28 11:28:10;;;;;;;;;;;;;;;9.92;nan;98649.50;5035132;28;20418;-88
2021/12/28 11:30:35;;;;;;;;;;;;;;;10.02;nan;98649.16;5049007;28;19944;-88
2021/12/28 11:33:04;;;;;;;;;;;;;;;10.06;nan;98645.09;5047930;28;19925;-87
2021/12/28 11:35:30;;;;;;;;;;;;;;;10.09;nan;98636.81;5031908;28;19921;-88
2021/12/28 11:37:56;;;;;;;;;;;;;;;10.10;nan;98638.44;5006508;28;20397;-87
2021/12/28 11:40:21;;;;;;;;;;;;;;;10.16;nan;98627.09;5041246;28;19948;-87
2021/12/28 11:42:46;;;;;;;;;;;;;;;10.11;nan;98630.31;5019229;28;20007;-87
2021/12/28 11:45:12;;;;;;;;;;;;;;;10.17;nan;98632.16;5022875;28;19968;-87
2021/12/28 11:47:37;;;;;;;;;;;;;;;10.21;nan;98624.69;5029970;28;19969;-87
2021/12/28 11:50:04;;;;;;;;;;;;;;;10.16;nan;98624.44;5014714;28;19928;-88
2021/12/28 11:52:29;;;;;;;;;;;;;;;10.16;nan;98619.16;5024563;28;19918;-87
2021/12/28 11:54:56;;;;;;;;;;;;;;;10.23;nan;98622.66;5014190;28;19921;-88
2021/12/28 11:57:26;;;;;;;;;;;;;;;10.24;nan;98621.63;5019640;28;20299;-88
2021/12/28 11:59:52;;;;;;;;;;;;;;;10.23;nan;98622.66;5019511;28;20449;-87
2021/12/28 12:02:17;;;;;;;;;;;;;;;10.21;nan;98617.56;5018063;28;19928;-89
2021/12/28 12:04:53;;;;;;;;;;;;;;;10.21;nan;98607.00;5016627;28;19929;-88
2021/12/28 12:07:18;;;;;;;;;;;;;;;10.23;nan;98604.16;5018384;28;19962;-87
2021/12/28 12:09:49;;;;;;;;;;;;;;;10.26;nan;98608.25;5005801;28;19929;-87
2021/12/28 12:12:17;;;;;;;;;;;;;;;10.29;nan;98611.31;5022111;28;19921;-87
2021/12/28 12:14:58;;;;;;;;;;;;;;;10.29;nan;98606.03;5003881;28;20294;-88
2021/12/28 12:17:26;;;;;;;;;;;;;;;10.38;nan;98606.69;5016564;28;19927;-87
2021/12/28 12:19:51;;;;;;;;;;;;;;;10.43;nan;98606.91;5034352;28;19979;-87
2021/12/28 12:22:29;;;;;;;;;;;;;;;10.38;nan;98604.84;5024639;28;20387;-87
2021/12/28 12:24:54;;;;;;;;;;;;;;;10.44;nan;98602.44;5025388;28;20353;-87
2021/12/28 12:27:40;;;;;;;;;;;;;;;10.43;nan;98598.97;5007921;28;19971;-87
2021/12/28 12:30:17;;;;;;;;;;;;;;;10.44;nan;98597.16;5016345;28;20370;-88
2021/12/28 12:32:55;;;;;;;;;;;;;;;10.48;nan;98593.09;5024261;28;20272;-87
2021/12/28 12:35:32;;;;;;;;;;;;;;;10.47;nan;98597.56;5025108;28;19966;-87
2021/12/28 12:38:02;;;;;;;;;;;;;;;10.54;nan;98600.25;5007875;28;20012;-87
2021/12/28 12:40:46;;;;;;;;;;;;;;;10.51;nan;98593.53;5009482;28;19927;-87
2021/12/28 12:43:13;;;;;;;;;;;;;;;10.56;nan;98585.00;5031396;28;19984;-87
2021/12/28 12:45:51;;;;;;;;;;;;;;;10.52;nan;98581.94;5023684;28;19929;-87
2021/12/28 12:48:32;;;;;;;;;;;;;;;10.55;nan;98581.53;5033067;28;19921;-87
2021/12/28 12:51:16;;;;;;;;;;;;;;;10.51;nan;98582.13;5032777;28;19975;-87
2021/12/28 12:53:46;;;;;;;;;;;;;;;10.50;nan;98583.97;5000702;28;19964;-87
2021/12/28 12:56:18;;;;;;;;;;;;;;;10.40;nan;98580.88;5014872;28;20297;-87
2021/12/28 12:58:47;;;;;;;;;;;;;;;10.36;nan;98584.94;5009916;28;19980;-88
2021/12/28 13:01:25;;;;;;;;;;;;;;;10.38;nan;98591.66;5015108;28;19921;-87
2021/12/28 13:03:51;;;;;;;;;;;;;;;10.30;nan;98573.34;5011993;28;20012;-87
2021/12/28 13:06:48;;;;;;;;;;;;;;;10.32;nan;98559.91;5006287;28;20365;-87
2021/12/28 13:09:15;;;;;;;;;;;;;;;10.33;nan;98553.63;5009488;28;19922;-87
2021/12/28 13:11:41;;;;;;;;;;;;;;;10.30;nan;98552.22;5031649;28;19987;-88
2021/12/28 13:14:07;;;;;;;;;;;;;;;10.29;nan;98563.78;5025206;28;19921;-88
2021/12/28 13:16:33;;;;;;;;;;;;;;;10.26;nan;98560.69;5014861;28;20468;-87